Time;durP1;ratioP1;P1;durP2;ratioP2;P2;SDS_P1;SDS_P2;PMS_P1;PMS_P2;Temp;Humidity;BMP_temperature;BMP_pressure;BME280_temperature;BME280_humidity;BME280_pressure;Samples;Min_cycle;Max_cycle;Signal;HPM_P1;HPM_P2
2022/11/23 00:00:25;;;;;;;27.88;16.00;;;;;;;7.75;100.00;96527.94;6249576;22;20011;-85
2022/11/23 00:02:57;;;;;;;34.33;17.33;;;;;;;7.70;100.00;96533.09;6249289;22;20035;-86
2022/11/23 00:05:24;;;;;;;37.22;18.50;;;;;;;7.74;100.00;96523.75;6276382;22;20012;-85
2022/11/23 00:07:50;;;;;;;37.22;18.13;;;;;;;7.67;100.00;96518.66;6248921;22;20422;-84
2022/11/23 00:10:16;;;;;;;39.85;19.05;;;;;;;7.75;100.00;96520.09;6276292;22;20008;-84
2022/11/23 00:12:42;;;;;;;37.53;18.92;;;;;;;7.70;100.00;96506.97;6249319;22;20099;-86
2022/11/23 00:15:09;;;;;;;35.40;18.25;;;;;;;7.68;100.00;96519.47;6276532;22;20442;-85
2022/11/23 00:17:34;;;;;;;43.78;20.42;;;;;;;7.60;100.00;96517.25;6249379;22;20023;-84
2022/11/23 00:20:00;;;;;;;43.65;19.65;;;;;;;7.58;100.00;96509.66;6276370;22;20019;-85
2022/11/23 00:22:26;;;;;;;42.30;20.48;;;;;;;7.57;100.00;96514.09;6224489;22;20438;-85
2022/11/23 00:24:51;;;;;;;38.13;20.05;;;;;;;7.52;100.00;96514.00;6276062;22;20023;-85
2022/11/23 00:27:18;;;;;;;40.05;20.17;;;;;;;7.46;100.00;96509.72;6276405;22;20019;-85
2022/11/23 00:29:45;;;;;;;42.13;20.60;;;;;;;7.50;100.00;96507.44;6276350;22;20023;-85
2022/11/23 00:32:10;;;;;;;41.03;21.00;;;;;;;7.47;100.00;96495.66;6248809;22;20022;-85
2022/11/23 00:34:36;;;;;;;41.40;21.38;;;;;;;7.32;100.00;96490.19;6275707;22;20008;-84
2022/11/23 00:37:01;;;;;;;40.10;19.80;;;;;;;7.34;100.00;96496.75;6248339;22;20414;-86
2022/11/23 00:39:27;;;;;;;37.42;18.23;;;;;;;7.39;100.00;96491.63;6275890;22;20015;-85
2022/11/23 00:41:53;;;;;;;36.72;16.98;;;;;;;7.24;100.00;96489.53;6275424;22;20003;-86
2022/11/23 00:44:21;;;;;;;31.25;16.10;;;;;;;7.47;100.00;96497.47;6275682;22;20016;-85
2022/11/23 00:46:46;;;;;;;35.05;16.00;;;;;;;7.63;100.00;96485.44;6276194;22;20011;-86
2022/11/23 00:49:12;;;;;;;33.78;15.35;;;;;;;7.63;100.00;96495.88;6276353;22;20089;-87
2022/11/23 00:51:37;;;;;;;33.83;16.25;;;;;;;7.41;100.00;96483.53;6249115;22;20094;-86
2022/11/23 00:54:04;;;;;;;29.25;14.80;;;;;;;7.43;100.00;96497.16;6223578;22;20022;-86
2022/11/23 00:56:31;;;;;;;36.47;16.00;;;;;;;7.45;100.00;96497.69;6275944;22;20018;-85
2022/11/23 00:59:00;;;;;;;31.85;14.07;;;;;;;7.39;100.00;96483.00;6249233;22;20734;-85
2022/11/23 01:01:29;;;;;;;29.58;14.75;;;;;;;7.34;100.00;96498.56;6275996;22;20004;-86
2022/11/23 01:03:58;;;;;;;27.42;15.07;;;;;;;7.37;100.00;96482.44;6275637;22;20007;-85
2022/11/23 01:06:36;;;;;;;30.20;14.95;;;;;;;7.41;100.00;96491.38;6276108;22;20007;-86
2022/11/23 01:09:13;;;;;;;31.27;15.07;;;;;;;7.39;100.00;96491.63;6248229;22;20019;-85
2022/11/23 01:11:38;;;;;;;28.45;14.38;;;;;;;7.36;100.00;96486.84;6276099;22;20046;-86
2022/11/23 01:14:04;;;;;;;30.77;14.95;;;;;;;7.26;100.00;96484.88;6276008;22;20014;-85
2022/11/23 01:16:32;;;;;;;39.55;16.55;;;;;;;7.34;100.00;96478.47;6275872;22;20391;-86
2022/11/23 01:19:01;;;;;;;32.03;15.52;;;;;;;7.40;100.00;96480.16;6276116;22;20008;-86
2022/11/23 01:21:29;;;;;;;37.53;16.15;;;;;;;7.48;100.00;96471.16;6275679;22;20437;-86
2022/11/23 01:23:55;;;;;;;36.10;15.93;;;;;;;7.60;100.00;96472.88;6274986;22;20019;-84
2022/11/23 01:26:21;;;;;;;33.58;17.02;;;;;;;7.48;100.00;96458.09;6248365;22;20016;-84
2022/11/23 01:28:48;;;;;;;30.38;16.00;;;;;;;7.58;100.00;96466.06;6275146;22;20019;-84
2022/11/23 01:31:17;;;;;;;30.45;16.58;;;;;;;7.64;100.00;96466.13;6276213;22;20465;-85
2022/11/23 01:33:43;;;;;;;35.08;17.48;;;;;;;7.61;100.00;96456.16;6277381;22;20372;-85
2022/11/23 01:36:13;;;;;;;35.17;17.30;;;;;;;7.68;100.00;96451.59;6277370;22;20007;-86
2022/11/23 01:38:42;;;;;;;44.00;16.70;;;;;;;7.68;100.00;96441.16;6276656;22;20015;-85
2022/11/23 01:41:12;;;;;;;41.83;17.27;;;;;;;7.61;100.00;96430.06;6249744;22;20027;-85
2022/11/23 01:43:38;;;;;;;33.83;16.48;;;;;;;7.53;100.00;96437.28;6277164;22;20299;-85
2022/11/23 01:46:06;;;;;;;34.08;17.50;;;;;;;7.48;100.00;96432.00;6276809;22;20027;-85
2022/11/23 01:48:41;;;;;;;28.83;15.95;;;;;;;7.66;100.00;96438.75;6277151;22;20008;-84
2022/11/23 01:51:40;;;;;;;29.85;15.55;;;;;;;7.81;100.00;96432.19;6250093;22;20019;-85
2022/11/23 01:54:17;;;;;;;35.88;16.58;;;;;;;7.86;100.00;96427.81;6275642;22;20031;-85
2022/11/23 01:56:46;;;;;;;34.63;16.75;;;;;;;7.98;100.00;96429.50;6224435;22;20018;-84
2022/11/23 01:59:15;;;;;;;40.15;16.80;;;;;;;7.96;100.00;96415.91;6274919;22;20383;-85
2022/11/23 02:01:42;;;;;;;29.35;15.73;;;;;;;7.91;100.00;96421.06;6277300;22;20086;-85
2022/11/23 02:04:13;;;;;;;31.20;16.58;;;;;;;8.10;100.00;96414.53;6250090;22;20012;-86
2022/11/23 02:06:41;;;;;;;34.45;16.77;;;;;;;8.11;100.00;96416.09;6276704;22;20012;-85
2022/11/23 02:09:08;;;;;;;35.33;17.40;;;;;;;7.85;100.00;96415.75;6250085;22;20011;-85
2022/11/23 02:11:33;;;;;;;37.25;18.75;;;;;;;7.93;100.00;96409.34;6276958;22;20008;-86
2022/11/23 02:13:59;;;;;;;43.75;19.52;;;;;;;8.10;100.00;96411.91;6250157;22;20030;-86
2022/11/23 02:16:24;;;;;;;36.78;19.52;;;;;;;8.27;100.00;96411.84;6250020;22;20015;-84
2022/11/23 02:18:51;;;;;;;39.80;20.08;;;;;;;8.35;100.00;96407.19;6277030;22;20502;-85
2022/11/23 02:21:16;;;;;;;45.35;22.05;;;;;;;8.19;100.00;96408.84;6276716;22;20007;-85
2022/11/23 02:24:02;;;;;;;39.88;20.77;;;;;;;8.42;100.00;96398.13;6244721;23;20074;-84
2022/11/23 02:26:31;;;;;;;39.92;20.20;;;;;;;8.44;100.00;96384.81;6246407;22;20015;-85
2022/11/23 02:29:05;;;;;;;40.38;21.08;;;;;;;8.51;100.00;96385.44;6219970;23;20040;-86
2022/11/23 02:31:31;;;;;;;42.13;21.98;;;;;;;8.31;100.00;96380.78;6244897;23;20469;-86
2022/11/23 02:33:57;;;;;;;46.17;22.70;;;;;;;8.28;100.00;96382.06;6246669;22;20036;-86
2022/11/23 02:36:41;;;;;;;41.75;22.15;;;;;;;8.29;100.00;96377.63;6244099;23;20012;-84
2022/11/23 02:39:11;;;;;;;;;;;;;;;8.26;100.00;96371.06;6246342;22;20350;-84
2022/11/23 02:41:47;;;;;;;45.33;22.52;;;;;;;8.29;100.00;96361.94;6246003;22;20234;-85
2022/11/23 02:44:42;;;;;;;42.13;21.77;;;;;;;8.20;100.00;96374.66;6246728;22;20019;-85
2022/11/23 02:47:09;;;;;;;47.90;23.27;;;;;;;8.31;100.00;96364.28;6246740;22;20015;-85
2022/11/23 02:49:35;;;;;;;47.03;24.13;;;;;;;8.28;100.00;96360.38;6246504;22;20043;-86
2022/11/23 02:52:02;;;;;;;43.50;22.65;;;;;;;8.46;100.00;96356.63;6219283;23;20016;-85
2022/11/23 02:54:28;;;;;;;47.70;23.60;;;;;;;8.49;100.00;96344.88;6246393;22;20339;-86
2022/11/23 02:56:54;;;;;;;49.53;23.92;;;;;;;8.65;100.00;96344.03;6245973;22;20019;-86
2022/11/23 02:59:19;;;;;;;50.55;24.20;;;;;;;8.58;100.00;96348.66;6244410;23;20439;-84
2022/11/23 03:01:46;;;;;;;45.08;23.20;;;;;;;8.65;100.00;96332.75;6245565;22;20011;-85
2022/11/23 03:04:12;;;;;;;48.90;24.38;;;;;;;8.78;100.00;96331.56;6245477;23;20062;-84
2022/11/23 03:06:38;;;;;;;43.80;22.92;;;;;;;8.78;100.00;96324.50;6245749;22;20320;-85
2022/11/23 03:09:04;;;;;;;45.10;23.20;;;;;;;8.69;100.00;96326.78;6245884;22;20043;-84
2022/11/23 03:11:32;;;;;;;43.50;22.15;;;;;;;8.81;100.00;96331.84;6219159;23;20012;-85
2022/11/23 03:13:57;;;;;;;43.60;22.92;;;;;;;8.92;100.00;96326.69;6246039;22;20094;-85
2022/11/23 03:16:23;;;;;;;38.80;20.58;;;;;;;8.91;100.00;96333.75;6246585;22;20011;-87
2022/11/23 03:18:49;;;;;;;38.70;20.25;;;;;;;9.02;100.00;96341.66;6245091;23;20095;-85
2022/11/23 03:21:14;;;;;;;38.33;21.65;;;;;;;9.03;100.00;96336.19;6243976;23;20426;-86
2022/11/23 03:23:40;;;;;;;43.53;21.67;;;;;;;8.95;100.00;96329.59;6257384;22;20424;-87
2022/11/23 03:26:06;;;;;;;48.13;22.00;;;;;;;8.91;100.00;96336.38;6277415;22;20007;-85
2022/11/23 03:28:31;;;;;;;41.80;23.38;;;;;;;8.84;100.00;96330.53;6276728;22;20014;-87
2022/11/23 03:30:57;;;;;;;42.13;21.83;;;;;;;8.76;100.00;96329.19;6249045;22;20007;-85
2022/11/23 03:33:23;;;;;;;43.00;23.20;;;;;;;8.78;100.00;96310.63;6276340;22;20018;-86
2022/11/23 03:35:48;;;;;;;41.95;22.38;;;;;;;8.78;100.00;96313.25;6276105;22;20019;-86
2022/11/23 03:38:14;;;;;;;41.30;23.25;;;;;;;8.76;100.00;96308.28;6249714;22;20486;-86
2022/11/23 03:40:43;;;;;;;46.80;24.70;;;;;;;8.86;100.00;96315.41;6249544;22;20018;-86
2022/11/23 03:43:09;;;;;;;42.05;22.80;;;;;;;8.94;100.00;96306.28;6249940;22;20043;-85
2022/11/23 03:45:34;;;;;;;41.78;22.48;;;;;;;8.94;100.00;96299.25;6276593;22;20042;-85
2022/11/23 03:48:00;;;;;;;45.30;24.10;;;;;;;8.96;100.00;96296.38;6276086;22;20007;-85
2022/11/23 03:50:28;;;;;;;46.55;24.65;;;;;;;8.92;100.00;96290.06;6275808;22;20012;-86
2022/11/23 03:52:54;;;;;;;44.20;24.10;;;;;;;9.02;100.00;96290.13;6276129;22;20455;-84
2022/11/23 03:55:20;;;;;;;52.60;24.85;;;;;;;8.99;100.00;96285.41;6276348;22;20011;-85
2022/11/23 03:57:49;;;;;;;45.20;25.67;;;;;;;8.85;100.00;96279.84;6276245;22;20465;-85
2022/11/23 04:00:15;;;;;;;44.38;24.40;;;;;;;8.65;100.00;96280.47;6248865;22;20473;-85
2022/11/23 04:02:42;;;;;;;47.85;25.23;;;;;;;8.66;100.00;96272.38;6275705;22;20014;-85
2022/11/23 04:05:08;;;;;;;51.47;23.88;;;;;;;8.80;100.00;96257.03;6249280;22;20008;-85
2022/11/23 04:07:34;;;;;;;49.08;25.67;;;;;;;8.79;100.00;96257.28;6249098;22;20023;-85
2022/11/23 04:10:00;;;;;;;48.72;25.35;;;;;;;8.89;100.00;96267.81;6276460;22;20345;-85
2022/11/23 04:12:26;;;;;;;47.42;25.60;;;;;;;8.84;100.00;96263.34;6249699;22;20010;-86
2022/11/23 04:14:51;;;;;;;48.95;25.67;;;;;;;8.98;100.00;96253.22;6277324;22;20488;-86
2022/11/23 04:17:18;;;;;;;55.95;26.60;;;;;;;9.03;100.00;96244.63;6277647;22;20082;-87
2022/11/23 04:19:53;;;;;;;50.60;24.05;;;;;;;8.82;100.00;96248.91;6250523;22;20011;-86
2022/11/23 04:22:19;;;;;;;46.35;22.63;;;;;;;9.10;100.00;96254.84;6225655;22;20452;-87
2022/11/23 04:24:44;;;;;;;46.17;23.20;;;;;;;9.06;100.00;96243.34;6224669;22;20012;-88
2022/11/23 04:27:10;;;;;;;44.33;21.88;;;;;;;9.14;100.00;96250.69;6277468;22;20014;-86
2022/11/23 04:29:35;;;;;;;48.95;24.27;;;;;;;8.83;100.00;96234.81;6250037;22;20057;-87
2022/11/23 04:32:01;;;;;;;41.17;21.17;;;;;;;8.67;100.00;96221.66;6249364;22;20734;-86
2022/11/23 04:34:26;;;;;;;45.25;21.48;;;;;;;8.91;100.00;96210.81;6276525;22;20007;-84
2022/11/23 04:36:58;;;;;;;45.58;21.20;;;;;;;9.02;100.00;96205.59;6224651;22;20011;-84
2022/11/23 04:39:24;;;;;;;48.10;23.25;;;;;;;8.93;100.00;96223.63;6249377;22;20012;-86
2022/11/23 04:41:50;;;;;;;53.47;24.58;;;;;;;9.10;100.00;96215.59;6276278;22;20161;-84
2022/11/23 04:44:22;;;;;;;48.83;23.45;;;;;;;9.05;100.00;96210.34;6276599;22;20018;-84
2022/11/23 04:46:49;;;;;;;49.80;24.55;;;;;;;9.25;100.00;96204.41;6276100;22;20077;-86
2022/11/23 04:49:16;;;;;;;50.05;25.00;;;;;;;9.23;100.00;96199.41;6249377;22;20007;-85
2022/11/23 04:51:41;;;;;;;53.28;24.35;;;;;;;9.28;100.00;96209.94;6224294;22;20461;-86
2022/11/23 04:54:07;;;;;;;52.47;24.25;;;;;;;9.20;100.00;96175.59;6249136;22;20011;-85
2022/11/23 04:56:33;;;;;;;50.85;23.13;;;;;;;9.32;100.00;96184.00;6223745;22;20010;-85
2022/11/23 04:59:02;;;;;;;57.03;24.25;;;;;;;9.34;100.00;96178.53;6276347;22;20018;-85
2022/11/23 05:01:28;;;;;;;53.65;24.67;;;;;;;9.21;100.00;96183.19;6275580;22;20094;-84
2022/11/23 05:03:54;;;;;;;49.92;23.52;;;;;;;9.22;100.00;96171.69;6274207;22;20012;-86
2022/11/23 05:06:19;;;;;;;50.75;23.90;;;;;;;9.11;100.00;96173.47;6225008;22;20007;-85
2022/11/23 05:08:45;;;;;;;49.80;23.25;;;;;;;9.17;100.00;96165.66;6250798;22;20012;-85
2022/11/23 05:11:20;;;;;;;47.72;23.42;;;;;;;8.69;100.00;96156.81;6253249;22;20095;-85
2022/11/23 05:13:46;;;;;;;50.60;22.52;;;;;;;9.05;100.00;96158.81;6277854;22;20008;-85
2022/11/23 05:16:12;;;;;;;47.65;24.33;;;;;;;8.95;100.00;96164.78;6277245;22;20436;-85
2022/11/23 05:18:37;;;;;;;46.58;21.25;;;;;;;9.09;100.00;96143.38;6250673;22;20085;-85
2022/11/23 05:21:05;;;;;;;45.78;22.05;;;;;;;9.13;100.00;96144.44;6277301;22;20011;-84
2022/11/23 05:23:30;;;;;;;53.10;23.63;;;;;;;8.57;100.00;96135.28;6250353;22;20414;-85
2022/11/23 05:25:56;;;;;;;49.08;22.67;;;;;;;8.92;100.00;96138.31;6277576;22;20035;-85
2022/11/23 05:28:21;;;;;;;44.85;20.77;;;;;;;8.92;100.00;96133.91;6250658;22;20023;-85
2022/11/23 05:30:50;;;;;;;51.80;23.17;;;;;;;8.91;100.00;96127.09;6251076;22;20391;-85
2022/11/23 05:33:16;;;;;;;49.40;22.30;;;;;;;9.02;100.00;96117.44;6250387;22;20035;-85
2022/11/23 05:35:50;;;;;;;60.10;24.13;;;;;;;8.86;100.00;96106.94;6277823;22;20068;-85
2022/11/23 05:38:16;;;;;;;64.82;24.52;;;;;;;8.68;100.00;96095.09;6250857;22;20034;-85
2022/11/23 05:40:45;;;;;;;52.13;24.40;;;;;;;8.76;100.00;96093.03;6277143;22;20058;-85
2022/11/23 05:43:11;;;;;;;48.33;24.10;;;;;;;9.01;100.00;96089.72;6277421;22;20012;-86
2022/11/23 05:45:37;;;;;;;55.33;24.90;;;;;;;8.88;100.00;96098.84;6250393;22;20039;-85
2022/11/23 05:48:04;;;;;;;57.47;25.35;;;;;;;8.77;100.00;96099.81;6250181;22;20012;-84
2022/11/23 05:50:30;;;;;;;51.97;22.98;;;;;;;8.69;100.00;96104.50;6277438;22;20038;-85
2022/11/23 05:52:57;;;;;;;48.90;21.77;;;;;;;8.75;100.00;96096.69;6276849;22;20039;-83
2022/11/23 05:55:23;;;;;;;61.63;23.60;;;;;;;8.73;100.00;96098.78;6277329;22;20019;-86
2022/11/23 05:57:49;;;;;;;50.65;22.58;;;;;;;8.76;100.00;96085.19;6250966;22;20418;-85
2022/11/23 06:00:15;;;;;;;56.33;24.48;;;;;;;8.74;100.00;96084.66;6224915;22;20085;-86
2022/11/23 06:02:40;;;;;;;47.13;22.73;;;;;;;8.69;100.00;96078.38;6250587;22;20086;-86
2022/11/23 06:05:08;;;;;;;43.50;22.60;;;;;;;8.54;100.00;96070.44;6250304;22;20011;-84
2022/11/23 06:07:34;;;;;;;54.22;23.33;;;;;;;8.64;100.00;96067.88;6277654;22;20376;-85
2022/11/23 06:10:00;;;;;;;48.35;22.52;;;;;;;8.52;100.00;96065.47;6277489;22;20008;-85
2022/11/23 06:12:29;;;;;;;45.30;19.73;;;;;;;8.78;100.00;96072.63;6277407;22;20395;-85
2022/11/23 06:15:05;;;;;;;47.17;21.08;;;;;;;8.63;100.00;96068.91;6255370;22;20007;-88
2022/11/23 06:17:31;;;;;;;51.33;20.90;;;;;;;8.59;100.00;96067.06;6278017;22;20018;-87
2022/11/23 06:19:58;;;;;;;52.00;21.25;;;;;;;8.81;100.00;96069.50;6250356;22;20449;-86
2022/11/23 06:22:27;;;;;;;43.42;20.77;;;;;;;8.82;100.00;96050.16;6225295;22;20004;-85
2022/11/23 06:24:52;;;;;;;42.20;19.52;;;;;;;8.95;100.00;96054.13;6276799;22;20075;-87
2022/11/23 06:27:24;;;;;;;44.97;20.80;;;;;;;8.77;100.00;96037.84;6226042;22;20027;-85
2022/11/23 06:29:50;;;;;;;39.50;18.92;;;;;;;8.97;100.00;96031.13;6250362;22;20011;-86
2022/11/23 06:32:16;;;;;;;39.92;19.40;;;;;;;9.06;100.00;96026.16;6248433;22;20445;-85
2022/11/23 06:34:42;;;;;;;39.47;19.80;;;;;;;9.06;100.00;96018.31;6275389;22;20107;-86
2022/11/23 06:37:09;;;;;;;36.67;19.38;;;;;;;8.83;100.00;96021.13;6275248;22;20007;-85
2022/11/23 06:39:43;;;;;;;36.95;19.30;;;;;;;8.90;100.00;96015.66;6275536;22;20022;-86
2022/11/23 06:42:12;;;;;;;43.10;20.48;;;;;;;9.00;100.00;96014.91;6247640;22;20008;-86
2022/11/23 06:44:38;;;;;;;38.33;19.70;;;;;;;8.79;100.00;96024.50;6248468;22;20026;-86
2022/11/23 06:47:04;;;;;;;42.28;19.50;;;;;;;8.82;100.00;96014.34;6275255;22;20011;-84
2022/11/23 06:49:29;;;;;;;33.78;17.92;;;;;;;8.85;100.00;96015.66;6275043;22;20403;-85
2022/11/23 06:51:56;;;;;;;40.22;18.70;;;;;;;9.03;100.00;96013.56;6275143;22;20087;-85
2022/11/23 06:54:21;;;;;;;37.92;18.27;;;;;;;8.96;100.00;96016.47;6275318;22;20090;-84
2022/11/23 06:56:48;;;;;;;35.85;16.70;;;;;;;8.88;100.00;96004.66;6274746;22;20012;-84
2022/11/23 06:59:14;;;;;;;37.40;16.40;;;;;;;8.98;100.00;96012.53;6275069;22;20095;-88
2022/11/23 07:01:40;;;;;;;33.53;16.67;;;;;;;9.08;100.00;96008.38;6275058;22;20004;-87
2022/11/23 07:04:05;;;;;;;31.60;13.32;;;;;;;8.92;100.00;96020.63;6274945;22;20031;-85
2022/11/23 07:06:31;;;;;;;31.83;14.32;;;;;;;8.99;100.00;96008.88;6275140;22;20015;-86
2022/11/23 07:08:57;;;;;;;30.25;14.25;;;;;;;8.74;100.00;96006.97;6249474;22;20007;-86
2022/11/23 07:11:22;;;;;;;28.58;13.95;;;;;;;8.99;100.00;95997.63;6274675;22;20012;-89
2022/11/23 07:13:48;;;;;;;26.70;13.05;;;;;;;9.22;100.00;95995.56;6275278;22;20078;-86
2022/11/23 07:16:13;;;;;;;26.45;14.90;;;;;;;9.12;100.00;95997.09;6275244;22;20034;-87
2022/11/23 07:18:39;;;;;;;27.42;12.93;;;;;;;8.79;100.00;95980.06;6275474;22;20014;-88
2022/11/23 07:21:05;;;;;;;28.65;12.60;;;;;;;8.96;100.00;95985.84;6274570;22;20035;-87
2022/11/23 07:23:31;;;;;;;24.15;11.40;;;;;;;8.97;100.00;95979.56;6275194;22;20034;-85
2022/11/23 07:25:57;;;;;;;20.60;10.75;;;;;;;9.12;100.00;95970.16;6247468;22;20019;-85
2022/11/23 07:28:22;;;;;;;27.80;10.68;;;;;;;9.19;100.00;95970.69;6274607;22;20100;-85
2022/11/23 07:30:49;;;;;;;19.85;9.82;;;;;;;9.12;100.00;95970.16;6248176;22;20389;-84
2022/11/23 07:33:15;;;;;;;27.85;10.73;;;;;;;9.31;100.00;95967.81;6274778;22;20338;-87
2022/11/23 07:35:41;;;;;;;28.13;11.40;;;;;;;9.19;100.00;95965.44;6247665;22;20007;-87
2022/11/23 07:38:07;;;;;;;25.00;11.60;;;;;;;9.19;100.00;95959.44;6247976;22;20021;-86
2022/11/23 07:40:36;;;;;;;26.05;10.63;;;;;;;9.17;100.00;95951.06;6222042;22;20008;-87
2022/11/23 07:43:08;;;;;;;28.40;13.25;;;;;;;9.10;100.00;95940.88;6222610;22;20038;-87
2022/11/23 07:45:35;;;;;;;21.02;9.40;;;;;;;9.17;100.00;95925.69;6219282;22;20516;-88
2022/11/23 07:48:04;;;;;;;22.08;9.85;;;;;;;9.03;100.00;95935.09;6274363;22;20406;-85
2022/11/23 07:50:30;;;;;;;24.95;11.52;;;;;;;9.19;100.00;95944.50;6274411;22;20008;-84
2022/11/23 07:53:01;;;;;;;22.45;10.20;;;;;;;9.29;100.00;95938.50;6246969;22;20062;-85
2022/11/23 07:55:27;;;;;;;28.00;11.15;;;;;;;9.21;100.00;95926.72;6247074;22;20095;-86
2022/11/23 07:57:54;;;;;;;24.88;11.73;;;;;;;9.48;100.00;95920.44;6247874;22;20031;-84
2022/11/23 08:00:23;;;;;;;23.02;11.63;;;;;;;9.63;100.00;95911.75;6246963;22;20012;-85
2022/11/23 08:02:50;;;;;;;23.90;10.60;;;;;;;9.58;100.00;95899.44;6274251;22;20008;-84
2022/11/23 08:05:16;;;;;;;24.30;9.80;;;;;;;9.64;100.00;95891.59;6247220;22;20065;-85
2022/11/23 08:07:43;;;;;;;19.35;9.23;;;;;;;9.31;100.00;95899.75;6274072;22;20872;-83
2022/11/23 08:10:13;;;;;;;25.08;8.45;;;;;;;9.33;100.00;95910.75;6273655;22;20087;-85
2022/11/23 08:12:39;;;;;;;15.82;8.63;;;;;;;9.29;100.00;95900.03;6247091;22;20012;-87
2022/11/23 08:15:06;;;;;;;20.42;8.13;;;;;;;9.50;100.00;95886.91;6274127;22;20012;-85
2022/11/23 08:17:32;;;;;;;20.42;8.20;;;;;;;9.56;100.00;95903.41;6273105;22;20046;-84
2022/11/23 08:20:02;;;;;;;23.35;9.48;;;;;;;9.46;100.00;95887.69;6272828;22;20013;-85
2022/11/23 08:22:27;;;;;;;21.75;9.55;;;;;;;9.48;100.00;95886.41;6221233;22;20018;-87
2022/11/23 08:24:54;;;;;;;18.63;9.25;;;;;;;9.66;100.00;95892.13;6273215;22;20054;-86
2022/11/23 08:27:19;;;;;;;27.65;9.80;;;;;;;9.63;100.00;95871.69;6248326;22;20390;-87
2022/11/23 08:29:45;;;;;;;14.48;7.75;;;;;;;9.64;100.00;95881.13;6275574;22;20012;-85
2022/11/23 08:32:11;;;;;;;17.95;9.48;;;;;;;9.77;100.00;95877.91;6274917;22;20339;-82
2022/11/23 08:34:36;;;;;;;18.90;8.30;;;;;;;9.70;100.00;95872.19;6274187;22;20012;-83
2022/11/23 08:37:02;;;;;;;13.30;7.65;;;;;;;9.76;100.00;95868.50;6246285;22;20065;-84
2022/11/23 08:39:27;;;;;;;16.15;7.93;;;;;;;9.50;100.00;95860.72;6246332;22;20039;-84
2022/11/23 08:41:53;;;;;;;17.80;8.77;;;;;;;9.42;100.00;95864.66;6276341;22;20007;-84
2022/11/23 08:44:18;;;;;;;16.58;8.15;;;;;;;9.70;100.00;95859.09;6276877;22;20043;-84
2022/11/23 08:46:44;;;;;;;12.82;7.70;;;;;;;9.69;100.00;95858.31;6276328;22;20012;-84
2022/11/23 08:49:09;;;;;;;16.17;8.43;;;;;;;9.63;100.00;95869.06;6276409;22;20012;-85
2022/11/23 08:51:35;;;;;;;14.40;8.45;;;;;;;9.68;100.00;95871.69;6276479;22;20007;-86
2022/11/23 08:54:00;;;;;;;13.20;8.40;;;;;;;9.77;100.00;95866.69;6275950;22;20014;-86
2022/11/23 08:56:26;;;;;;;19.05;9.07;;;;;;;9.89;100.00;95867.13;6276530;22;20426;-87
2022/11/23 08:58:51;;;;;;;16.35;9.82;;;;;;;9.83;100.00;95870.84;6276955;22;20016;-88
2022/11/23 09:01:17;;;;;;;25.25;10.70;;;;;;;9.73;100.00;95871.66;6249193;22;20456;-87
2022/11/23 09:03:44;;;;;;;18.08;10.27;;;;;;;9.90;100.00;95876.56;6275066;22;20069;-88
2022/11/23 09:06:10;;;;;;;19.75;10.75;;;;;;;9.20;100.00;95882.50;6276048;22;20090;-87
2022/11/23 09:08:36;;;;;;;20.67;10.00;;;;;;;9.38;100.00;95878.53;6274181;22;20015;-87
2022/11/23 09:11:04;;;;;;;16.02;8.15;;;;;;;9.68;100.00;95875.06;6275872;22;20015;-87
2022/11/23 09:13:31;;;;;;;16.80;10.32;;;;;;;9.77;100.00;95875.31;6248728;22;20039;-87
2022/11/23 09:16:01;;;;;;;18.17;11.02;;;;;;;9.95;100.00;95883.63;6275560;22;20012;-88
2022/11/23 09:18:29;;;;;;;16.50;9.65;;;;;;;10.06;100.00;95885.16;6275814;22;20011;-87
2022/11/23 09:20:55;;;;;;;18.08;8.75;;;;;;;9.95;100.00;95896.72;6275260;22;20069;-87
2022/11/23 09:23:20;;;;;;;18.40;9.30;;;;;;;9.32;100.00;95905.78;6274922;22;20385;-87
2022/11/23 09:25:48;;;;;;;12.23;7.65;;;;;;;9.63;100.00;95900.47;6249134;22;20058;-88
2022/11/23 09:28:15;;;;;;;14.18;7.72;;;;;;;10.03;100.00;95896.19;6275835;22;20046;-87
2022/11/23 09:30:41;;;;;;;16.50;7.68;;;;;;;10.17;100.00;95892.97;6249012;22;20008;-87
2022/11/23 09:33:07;;;;;;;13.63;8.55;;;;;;;10.30;100.00;95895.00;6275712;22;20454;-88
2022/11/23 09:35:34;;;;;;;26.05;12.70;;;;;;;10.41;100.00;95893.91;6276155;22;20011;-88
2022/11/23 09:38:00;;;;;;;19.80;10.50;;;;;;;10.46;100.00;95892.34;6275699;22;20011;-87
2022/11/23 09:40:37;;;;;;;13.32;7.75;;;;;;;10.61;100.00;95897.50;6249084;22;20320;-86
2022/11/23 09:43:24;;;;;;;8.63;6.15;;;;;;;10.65;100.00;95906.38;6274548;22;20008;-86
2022/11/23 09:45:53;;;;;;;28.10;13.32;;;;;;;10.61;100.00;95905.38;6223507;22;20015;-86
2022/11/23 09:48:48;;;;;;;25.50;13.00;;;;;;;10.70;100.00;95895.06;6274932;22;20012;-87
2022/11/23 09:51:19;;;;;;;20.95;11.18;;;;;;;10.86;100.00;95893.13;6228331;22;20039;-87
2022/11/23 09:53:51;;;;;;;13.75;7.40;;;;;;;10.61;100.00;95894.88;6275097;22;20014;-85
2022/11/23 09:56:20;;;;;;;15.80;8.25;;;;;;;10.66;100.00;95904.53;6248233;22;20430;-86
2022/11/23 09:58:51;;;;;;;20.80;12.07;;;;;;;10.63;100.00;95892.75;6275073;22;20438;-84
2022/11/23 10:01:17;;;;;;;16.05;9.45;;;;;;;10.86;100.00;95893.13;6275042;22;20011;-85
2022/11/23 10:03:44;;;;;;;15.77;8.95;;;;;;;10.94;100.00;95899.63;6275464;22;20039;-85
2022/11/23 10:06:20;;;;;;;12.80;7.95;;;;;;;11.10;100.00;95900.28;6275354;22;20019;-85
2022/11/23 10:08:46;;;;;;;12.63;8.00;;;;;;;11.11;100.00;95904.47;6275185;22;20011;-84
2022/11/23 10:11:27;;;;;;;13.90;8.50;;;;;;;11.16;100.00;95907.03;6275190;22;20444;-85
2022/11/23 10:14:14;;;;;;;12.95;7.88;;;;;;;11.32;100.00;95909.53;6275572;22;20464;-84
2022/11/23 10:17:01;;;;;;;11.10;8.38;;;;;;;11.33;100.00;95911.13;6275452;22;20091;-86
2022/11/23 10:20:06;;;;;;;11.68;7.97;;;;;;;11.45;100.00;95914.16;6274891;22;20017;-86
2022/11/23 10:22:41;;;;;;;11.02;7.13;;;;;;;11.45;100.00;95919.41;6275488;22;20015;-83
2022/11/23 10:25:14;;;;;;;7.60;5.85;;;;;;;11.47;100.00;95914.66;6275118;22;20019;-83
2022/11/23 10:27:42;;;;;;;9.52;4.88;;;;;;;11.50;100.00;95900.22;6248716;22;20064;-85
2022/11/23 10:30:18;;;;;;;5.40;4.22;;;;;;;11.80;100.00;95909.63;6275279;22;20012;-87
2022/11/23 10:32:50;;;;;;;5.88;4.13;;;;;;;11.69;100.00;95916.81;6274932;22;20058;-84
2022/11/23 10:35:16;;;;;;;6.03;4.43;;;;;;;11.56;100.00;95931.38;6275253;22;20476;-83
2022/11/23 10:37:41;;;;;;;4.55;3.53;;;;;;;11.33;100.00;95932.13;6274881;22;20008;-83
2022/11/23 10:40:18;;;;;;;6.47;3.45;;;;;;;11.67;100.00;95933.91;6274685;22;20017;-83
2022/11/23 10:42:53;;;;;;;4.95;3.17;;;;;;;11.72;100.00;95928.59;6248463;22;20012;-83
2022/11/23 10:45:25;;;;;;;4.15;3.08;;;;;;;11.94;100.00;95937.84;6274647;22;20017;-82
2022/11/23 10:47:58;;;;;;;6.22;4.20;;;;;;;12.35;100.00;95934.75;6275095;22;20007;-83
2022/11/23 10:50:33;;;;;;;3.33;2.30;;;;;;;12.45;100.00;95940.97;6247454;22;20018;-82
2022/11/23 10:53:05;;;;;;;3.10;2.40;;;;;;;12.62;100.00;95953.63;6274636;22;20057;-82
2022/11/23 10:55:57;;;;;;;6.32;2.30;;;;;;;12.31;100.00;95954.81;6273545;22;20004;-82
2022/11/23 10:58:34;;;;;;;6.15;2.40;;;;;;;11.79;100.00;95942.22;6274178;22;20004;-82
2022/11/23 11:01:05;;;;;;;11.80;2.97;;;;;;;11.83;100.00;95948.47;6273942;22;20015;-81
2022/11/23 11:03:33;;;;;;;6.40;2.45;;;;;;;11.92;100.00;95948.66;6246169;22;20011;-81
2022/11/23 11:06:00;;;;;;;10.02;2.20;;;;;;;11.96;100.00;95954.09;6274712;22;20008;-83
2022/11/23 11:08:34;;;;;;;7.97;2.88;;;;;;;11.77;100.00;95957.44;6274448;22;20011;-81
2022/11/23 11:11:05;;;;;;;13.27;2.35;;;;;;;12.09;100.00;95957.97;6247043;22;20034;-83
2022/11/23 11:13:38;;;;;;;8.43;2.05;;;;;;;11.94;100.00;95958.88;6248954;22;20153;-84
2022/11/23 11:16:20;;;;;;;9.93;2.45;;;;;;;11.04;100.00;95967.00;6275732;22;20030;-85
2022/11/23 11:18:45;;;;;;;5.63;1.80;;;;;;;11.76;100.00;95974.28;6274892;22;20035;-82
2022/11/23 11:21:22;;;;;;;5.97;2.05;;;;;;;12.12;100.00;95976.56;6275336;22;20015;-82
2022/11/23 11:23:54;;;;;;;5.88;1.60;;;;;;;11.64;100.00;95974.66;6275457;22;20047;-82